createdAt,value
2022-11-23T00:01:19.670Z,7.65
2022-11-23T00:03:48.136Z,7.54
2022-11-23T00:06:15.229Z,7.57
2022-11-23T00:08:42.249Z,7.51
2022-11-23T00:11:08.845Z,7.51
2022-11-23T00:13:35.484Z,7.59
2022-11-23T00:16:05.879Z,7.51
2022-11-23T00:18:32.407Z,7.44
2022-11-23T00:20:58.871Z,7.39
2022-11-23T00:23:25.341Z,7.43
2022-11-23T00:25:51.814Z,7.43
2022-11-23T00:28:18.265Z,7.44
2022-11-23T00:30:49.755Z,7.50
2022-11-23T00:33:16.865Z,7.49
2022-11-23T00:35:43.407Z,7.53
2022-11-23T00:38:09.839Z,7.52
2022-11-23T00:40:36.287Z,7.46
2022-11-23T00:43:02.775Z,7.46
2022-11-23T00:45:29.479Z,7.15
2022-11-23T00:47:55.905Z,7.24
2022-11-23T00:50:22.366Z,7.38
2022-11-23T00:52:48.747Z,7.37
2022-11-23T00:55:15.129Z,7.41
2022-11-23T00:57:41.509Z,7.47
2022-11-23T01:00:08.525Z,7.46
2022-11-23T01:02:36.160Z,7.43
2022-11-23T01:05:03.694Z,7.24
2022-11-23T01:07:30.699Z,7.24
2022-11-23T01:09:57.684Z,7.16
2022-11-23T01:12:24.138Z,7.30
2022-11-23T01:14:53.642Z,7.31
2022-11-23T01:17:20.129Z,7.32
2022-11-23T01:19:46.702Z,7.18
2022-11-23T01:22:13.161Z,7.26
2022-11-23T01:24:39.597Z,7.31
2022-11-23T01:27:06.004Z,7.40
2022-11-23T01:29:32.842Z,7.35
2022-11-23T01:31:59.447Z,7.31
2022-11-23T01:34:25.910Z,7.32
2022-11-23T01:36:52.290Z,7.30
2022-11-23T01:39:18.737Z,7.30
2022-11-23T01:41:45.762Z,7.15
2022-11-23T01:44:27.323Z,7.19
2022-11-23T01:46:55.000Z,7.23
2022-11-23T01:49:23.167Z,7.28
2022-11-23T01:51:53.092Z,7.26
2022-11-23T01:54:28.132Z,7.25
2022-11-23T01:57:02.712Z,7.30
2022-11-23T01:59:33.575Z,7.31
2022-11-23T02:02:00.797Z,7.33
2022-11-23T02:04:31.397Z,7.22
2022-11-23T02:07:01.173Z,7.20
2022-11-23T02:09:33.430Z,7.14
2022-11-23T02:12:01.132Z,7.14
2022-11-23T02:14:28.226Z,7.09
2022-11-23T02:16:58.108Z,7.00
2022-11-23T02:19:30.366Z,6.98
2022-11-23T02:21:57.180Z,6.95
2022-11-23T02:24:31.249Z,6.89
2022-11-23T02:26:58.075Z,6.82
2022-11-23T02:29:26.156Z,6.74
2022-11-23T02:34:37.866Z,6.60
2022-11-23T02:37:04.257Z,6.55
2022-11-23T02:39:40.654Z,6.57
2022-11-23T02:42:07.158Z,6.50
2022-11-23T02:45:00.417Z,6.58
2022-11-23T02:47:26.925Z,6.53
2022-11-23T02:49:53.380Z,6.48
2022-11-23T02:52:19.842Z,6.47
2022-11-23T02:54:46.626Z,6.48
2022-11-23T02:57:13.209Z,6.43
2022-11-23T02:59:39.611Z,6.46
2022-11-23T03:02:06.389Z,6.46
2022-11-23T03:04:32.860Z,6.42
2022-11-23T03:06:59.333Z,6.39
2022-11-23T03:09:26.494Z,6.39
2022-11-23T03:11:53.504Z,6.39
2022-11-23T03:14:20.985Z,6.39
2022-11-23T03:16:47.461Z,6.42
2022-11-23T03:19:14.004Z,6.39
2022-11-23T03:21:40.410Z,6.30
2022-11-23T03:24:06.884Z,6.25
2022-11-23T03:26:33.457Z,6.23
2022-11-23T03:28:59.851Z,6.20
2022-11-23T03:31:26.469Z,6.14
2022-11-23T03:33:52.905Z,6.09
2022-11-23T03:36:19.324Z,6.09
2022-11-23T03:38:45.806Z,6.06
2022-11-23T03:41:12.216Z,6.11
2022-11-23T03:43:38.645Z,6.13
2022-11-23T03:46:05.286Z,6.12
2022-11-23T03:48:31.780Z,6.10
2022-11-23T03:50:58.161Z,6.01
2022-11-23T03:53:24.619Z,6.05
2022-11-23T03:55:51.091Z,6.04
2022-11-23T03:58:17.522Z,5.99
2022-11-23T04:00:44.028Z,5.99
2022-11-23T04:03:10.505Z,5.72
2022-11-23T04:05:37.001Z,5.64
2022-11-23T04:08:04.241Z,5.57
2022-11-23T04:10:30.788Z,5.43
2022-11-23T04:12:57.638Z,5.42
2022-11-23T04:15:24.129Z,5.36
2022-11-23T04:17:50.694Z,5.34
2022-11-23T04:20:17.133Z,5.39
2022-11-23T04:22:43.589Z,5.33
2022-11-23T04:25:10.508Z,5.22
2022-11-23T04:27:36.960Z,5.25
2022-11-23T04:30:05.002Z,5.24
2022-11-23T04:32:31.529Z,5.11
2022-11-23T04:34:58.018Z,5.14
2022-11-23T04:37:24.508Z,5.19
2022-11-23T04:39:50.900Z,5.13
2022-11-23T04:42:17.371Z,5.14
2022-11-23T04:44:43.843Z,5.18
2022-11-23T04:47:11.045Z,4.95
2022-11-23T04:49:37.710Z,5.02
2022-11-23T04:52:05.085Z,5.03
2022-11-23T04:54:32.142Z,5.05
2022-11-23T04:56:58.562Z,5.21
2022-11-23T04:59:25.377Z,5.10
2022-11-23T05:01:52.397Z,5.00
2022-11-23T05:04:19.653Z,4.99
2022-11-23T05:06:46.763Z,4.93
2022-11-23T05:09:13.656Z,4.98
2022-11-23T05:11:40.230Z,5.06
2022-11-23T05:14:06.705Z,4.90
2022-11-23T05:16:33.232Z,4.89
2022-11-23T05:18:59.717Z,4.94
2022-11-23T05:21:26.207Z,4.89
2022-11-23T05:23:52.768Z,4.89
2022-11-23T05:26:19.284Z,4.88
2022-11-23T05:28:45.844Z,4.93
2022-11-23T05:31:12.417Z,4.94
2022-11-23T05:33:39.109Z,4.94
2022-11-23T05:36:05.875Z,4.82
2022-11-23T05:38:32.294Z,4.86
2022-11-23T05:40:58.721Z,4.87
2022-11-23T05:43:25.544Z,4.90
2022-11-23T05:45:51.930Z,4.76
2022-11-23T05:48:18.685Z,4.73
2022-11-23T05:50:45.104Z,4.77
2022-11-23T05:53:11.601Z,4.72
2022-11-23T05:55:38.055Z,4.61
2022-11-23T05:58:04.478Z,4.70
2022-11-23T06:00:30.938Z,4.69
2022-11-23T06:03:01.539Z,4.83
2022-11-23T06:05:29.082Z,4.48
2022-11-23T06:07:56.087Z,4.51
2022-11-23T06:10:23.138Z,4.71
2022-11-23T06:12:52.891Z,4.70
2022-11-23T06:15:19.531Z,4.71
2022-11-23T06:17:46.069Z,4.76
2022-11-23T06:20:12.619Z,4.69
2022-11-23T06:22:39.083Z,4.75
2022-11-23T06:25:05.962Z,4.67
2022-11-23T06:27:32.354Z,4.71
2022-11-23T06:29:58.759Z,4.84
2022-11-23T06:32:25.167Z,4.81
2022-11-23T06:34:51.622Z,4.77
2022-11-23T06:37:18.031Z,4.70
2022-11-23T06:39:44.802Z,4.61
2022-11-23T06:44:59.371Z,4.41
2022-11-23T06:47:26.665Z,4.40
2022-11-23T06:49:53.317Z,4.39
2022-11-23T06:52:20.003Z,4.48
2022-11-23T06:54:46.914Z,4.46
2022-11-23T06:57:13.559Z,4.47
2022-11-23T06:59:44.449Z,4.28
2022-11-23T07:02:12.019Z,4.35
2022-11-23T07:04:38.500Z,4.22
2022-11-23T07:07:05.079Z,4.24
2022-11-23T07:09:31.884Z,4.30
2022-11-23T07:11:58.502Z,4.31
2022-11-23T07:14:24.897Z,4.24
2022-11-23T07:16:51.653Z,4.32
2022-11-23T07:19:18.058Z,4.22
2022-11-23T07:21:45.419Z,4.37
2022-11-23T07:24:12.079Z,4.30
2022-11-23T07:26:38.478Z,4.33
2022-11-23T07:29:04.906Z,4.32
2022-11-23T07:31:31.580Z,4.32
2022-11-23T07:33:57.979Z,4.40
2022-11-23T07:36:24.792Z,4.42
2022-11-23T07:38:51.203Z,4.48
2022-11-23T07:41:17.631Z,4.60
2022-11-23T07:43:44.221Z,4.65
2022-11-23T07:46:10.622Z,4.56
2022-11-23T07:48:37.021Z,4.72
2022-11-23T07:51:03.724Z,4.73
2022-11-23T07:53:30.212Z,4.60
2022-11-23T07:56:00.627Z,4.79
2022-11-23T07:58:27.521Z,4.66
2022-11-23T08:00:54.006Z,4.78
2022-11-23T08:03:29.155Z,4.80
2022-11-23T08:05:56.639Z,5.16
2022-11-23T08:08:23.921Z,5.66
2022-11-23T08:10:53.959Z,6.06
2022-11-23T08:13:22.004Z,6.45
2022-11-23T08:15:54.272Z,6.84
2022-11-23T08:18:22.952Z,7.10
2022-11-23T08:20:49.434Z,7.43
2022-11-23T08:23:15.906Z,8.30
2022-11-23T08:25:42.338Z,8.55
2022-11-23T08:28:10.396Z,8.83
2022-11-23T08:30:37.574Z,9.14
2022-11-23T08:33:07.952Z,9.53
2022-11-23T08:35:38.595Z,9.92
2022-11-23T08:38:05.975Z,10.00
2022-11-23T08:40:32.700Z,10.42
2022-11-23T08:42:59.202Z,10.64
2022-11-23T08:45:26.312Z,11.23
2022-11-23T08:47:53.132Z,10.73
2022-11-23T08:50:20.253Z,11.97
2022-11-23T08:52:46.866Z,12.09
2022-11-23T08:55:14.340Z,12.72
2022-11-23T08:57:40.711Z,13.07
2022-11-23T09:00:07.906Z,13.29
2022-11-23T09:02:34.306Z,13.56
2022-11-23T09:05:00.798Z,13.75
2022-11-23T09:07:27.515Z,14.08
2022-11-23T09:09:54.033Z,14.03
2022-11-23T09:12:20.479Z,14.38
2022-11-23T09:14:46.879Z,14.54
2022-11-23T09:17:13.367Z,14.18
2022-11-23T09:19:39.847Z,14.56
2022-11-23T09:22:06.276Z,14.65
2022-11-23T09:24:32.937Z,14.77
2022-11-23T09:26:59.706Z,14.66
2022-11-23T09:29:26.633Z,15.15
2022-11-23T09:31:53.108Z,15.07
2022-11-23T09:34:19.578Z,15.33
2022-11-23T09:36:46.383Z,15.02
2022-11-23T09:39:12.926Z,15.29
2022-11-23T09:41:48.115Z,15.17
2022-11-23T09:44:40.183Z,15.62
2022-11-23T09:47:12.742Z,15.40
2022-11-23T09:49:50.917Z,16.13
2022-11-23T09:52:20.919Z,16.15
2022-11-23T09:54:49.909Z,16.34
2022-11-23T09:57:21.753Z,16.88
2022-11-23T10:00:07.853Z,16.46
2022-11-23T10:02:39.345Z,16.84
2022-11-23T10:05:07.371Z,17.16
2022-11-23T10:08:04.605Z,17.25
2022-11-23T10:10:45.575Z,17.19
2022-11-23T10:13:38.245Z,17.35
2022-11-23T10:16:26.197Z,17.52
2022-11-23T10:19:14.678Z,17.79
2022-11-23T10:22:00.254Z,18.12
2022-11-23T10:24:33.620Z,18.50
2022-11-23T10:27:02.515Z,18.29
2022-11-23T10:29:37.294Z,18.36
2022-11-23T10:32:07.092Z,18.21
2022-11-23T10:34:46.453Z,17.89
2022-11-23T10:37:16.070Z,17.87
2022-11-23T10:39:42.703Z,17.96
2022-11-23T10:42:25.259Z,18.40
2022-11-23T10:44:55.469Z,18.91
2022-11-23T10:47:42.780Z,19.02
2022-11-23T10:50:30.004Z,19.28
2022-11-23T10:53:12.434Z,18.80
2022-11-23T10:55:54.969Z,18.73
2022-11-23T10:58:37.595Z,19.19
2022-11-23T11:01:07.442Z,19.00
2022-11-23T11:03:35.319Z,19.15
2022-11-23T11:06:11.076Z,19.19
2022-11-23T11:08:53.874Z,19.65
2022-11-23T11:11:28.993Z,19.39
2022-11-23T11:14:15.336Z,19.77
2022-11-23T11:16:56.506Z,19.71
2022-11-23T11:19:27.455Z,20.49
2022-11-23T11:21:54.826Z,20.51
2022-11-23T11:24:24.162Z,20.35
2022-11-23T11:26:53.345Z,20.31
2022-11-23T11:29:47.209Z,19.90
2022-11-23T11:32:38.259Z,19.43
2022-11-23T11:35:20.827Z,19.74
2022-11-23T11:37:50.273Z,19.26
2022-11-23T11:40:33.271Z,19.97
2022-11-23T11:43:08.603Z,19.66
2022-11-23T11:45:54.454Z,19.67
2022-11-23T11:48:35.707Z,19.29
2022-11-23T11:51:13.680Z,19.51
2022-11-23T11:53:49.409Z,19.84
2022-11-23T11:56:23.768Z,19.46
2022-11-23T11:59:03.257Z,19.44
2022-11-23T12:01:48.191Z,19.63
2022-11-23T12:04:21.794Z,20.26
2022-11-23T12:07:12.723Z,19.65
2022-11-23T12:09:42.831Z,20.39
2022-11-23T12:12:17.456Z,18.90
2022-11-23T12:14:45.259Z,18.76
2022-11-23T12:17:32.809Z,18.38
2022-11-23T12:20:35.211Z,17.47
2022-11-23T12:23:29.861Z,17.36
2022-11-23T12:26:20.104Z,16.91
2022-11-23T12:29:11.282Z,16.26
2022-11-23T12:31:49.891Z,15.94
2022-11-23T12:34:40.977Z,15.46
2022-11-23T12:37:37.138Z,15.15
2022-11-23T12:40:22.927Z,14.84
2022-11-23T12:42:53.762Z,14.57
2022-11-23T12:45:45.157Z,14.15
2022-11-23T12:48:11.537Z,13.83
2022-11-23T12:50:47.867Z,13.43
2022-11-23T12:53:34.607Z,13.43
2022-11-23T12:56:31.906Z,13.36
2022-11-23T12:58:59.316Z,13.47
2022-11-23T13:01:31.735Z,13.53
2022-11-23T13:04:45.566Z,13.61
2022-11-23T13:07:35.997Z,13.75
2022-11-23T13:10:45.259Z,13.37
2022-11-23T13:13:25.077Z,13.15
2022-11-23T13:16:00.592Z,13.06
2022-11-23T13:18:51.218Z,13.08
2022-11-23T13:21:21.019Z,12.87
2022-11-23T13:23:47.789Z,12.88
2022-11-23T13:26:19.816Z,12.76
2022-11-23T13:28:48.882Z,12.75
2022-11-23T13:31:15.926Z,12.52
2022-11-23T13:33:47.938Z,12.53
2022-11-23T13:36:49.337Z,12.44
2022-11-23T13:39:43.717Z,12.27
2022-11-23T13:42:11.200Z,12.29
2022-11-23T13:44:37.793Z,12.31
2022-11-23T13:47:19.303Z,12.26
2022-11-23T13:49:52.772Z,12.15
2022-11-23T13:52:25.136Z,12.09
2022-11-23T13:55:17.889Z,12.09
2022-11-23T13:57:46.858Z,12.00
2022-11-23T14:00:47.380Z,11.94
2022-11-23T14:03:49.572Z,11.90
2022-11-23T14:06:45.617Z,11.77
2022-11-23T14:09:24.161Z,11.57
2022-11-23T14:12:06.817Z,11.74
2022-11-23T14:14:43.573Z,11.66
2022-11-23T14:17:29.753Z,11.48
2022-11-23T14:20:09.790Z,11.46
2022-11-23T14:22:54.441Z,11.40
2022-11-23T14:25:32.181Z,11.44
2022-11-23T14:28:23.259Z,11.41
2022-11-23T14:30:52.445Z,11.38
2022-11-23T14:33:40.761Z,11.42
2022-11-23T14:36:23.107Z,11.47
2022-11-23T14:39:36.394Z,11.55
2022-11-23T14:42:10.615Z,11.58
2022-11-23T14:44:40.848Z,11.43
2022-11-23T14:47:09.946Z,11.40
2022-11-23T14:49:38.016Z,11.42
2022-11-23T14:52:05.722Z,11.23
2022-11-23T14:54:32.758Z,11.27
2022-11-23T14:57:02.866Z,11.30
2022-11-23T14:59:39.328Z,11.31
2022-11-23T15:02:25.163Z,11.34
2022-11-23T15:04:57.589Z,11.27
2022-11-23T15:07:28.799Z,11.12
2022-11-23T15:10:23.054Z,11.15
2022-11-23T15:12:50.179Z,11.10
2022-11-23T15:15:24.954Z,11.06
2022-11-23T15:17:56.624Z,11.07
2022-11-23T15:20:28.149Z,11.02
2022-11-23T15:22:54.677Z,10.87
2022-11-23T15:25:21.633Z,10.83
2022-11-23T15:27:51.482Z,10.70
2022-11-23T15:30:21.134Z,10.55
2022-11-23T15:33:09.588Z,10.51
2022-11-23T15:35:39.392Z,10.42
2022-11-23T15:38:14.949Z,10.45
2022-11-23T15:40:45.635Z,10.51
2022-11-23T15:43:13.793Z,10.49
2022-11-23T15:45:46.513Z,10.38
2022-11-23T15:48:17.605Z,10.40
2022-11-23T15:50:51.517Z,10.47
2022-11-23T15:53:19.146Z,10.45
2022-11-23T15:55:46.275Z,10.48
2022-11-23T15:58:18.559Z,10.48
2022-11-23T16:01:05.440Z,10.48
2022-11-23T16:03:42.635Z,10.25
2022-11-23T16:06:16.566Z,10.25
2022-11-23T16:08:43.015Z,10.25
2022-11-23T16:11:34.804Z,10.00
2022-11-23T16:14:17.624Z,9.89
2022-11-23T16:16:46.647Z,9.86
2022-11-23T16:19:29.843Z,9.81
2022-11-23T16:22:02.737Z,9.80
2022-11-23T16:24:32.190Z,9.82
2022-11-23T16:26:59.369Z,9.79
2022-11-23T16:29:30.411Z,9.81
2022-11-23T16:32:02.835Z,9.87
2022-11-23T16:34:30.776Z,9.88
2022-11-23T16:36:59.123Z,9.86
2022-11-23T16:39:26.052Z,9.88
2022-11-23T16:41:52.683Z,9.93
2022-11-23T16:44:19.496Z,9.83
2022-11-23T16:46:49.331Z,9.95
2022-11-23T16:49:23.216Z,9.90
2022-11-23T16:51:57.222Z,9.85
2022-11-23T16:54:25.300Z,9.81
2022-11-23T16:56:52.730Z,9.83
2022-11-23T16:59:19.705Z,9.89
2022-11-23T17:01:52.583Z,9.84
2022-11-23T17:04:22.228Z,9.80
2022-11-23T17:06:49.024Z,9.80
2022-11-23T17:09:15.839Z,9.91
2022-11-23T17:11:45.161Z,9.90
2022-11-23T17:14:18.946Z,9.86
2022-11-23T17:16:46.137Z,9.84
2022-11-23T17:19:17.536Z,9.83
2022-11-23T17:21:44.763Z,9.77
2022-11-23T17:24:12.842Z,9.83
2022-11-23T17:26:46.254Z,9.90
2022-11-23T17:29:14.480Z,9.92
2022-11-23T17:31:43.551Z,9.93
2022-11-23T17:34:10.198Z,9.98
2022-11-23T17:36:37.026Z,9.98
2022-11-23T17:39:04.043Z,9.96
2022-11-23T17:41:30.506Z,9.94
2022-11-23T17:43:59.609Z,9.94
2022-11-23T17:46:27.935Z,10.05
2022-11-23T17:48:56.958Z,9.99
2022-11-23T17:51:23.900Z,9.95
2022-11-23T17:53:51.035Z,10.00
2022-11-23T17:56:20.234Z,9.92
2022-11-23T17:58:47.108Z,9.89
2022-11-23T18:01:15.611Z,9.87
2022-11-23T18:03:45.472Z,9.88
2022-11-23T18:06:23.208Z,9.82
2022-11-23T18:08:50.927Z,9.84
2022-11-23T18:11:18.408Z,9.93
2022-11-23T18:13:45.016Z,9.92
2022-11-23T18:16:11.560Z,9.80
2022-11-23T18:18:38.372Z,9.77
2022-11-23T18:21:06.184Z,9.76
2022-11-23T18:23:32.982Z,9.76
2022-11-23T18:26:00.283Z,9.72
2022-11-23T18:28:27.239Z,9.70
2022-11-23T18:30:54.455Z,9.71
2022-11-23T18:33:21.653Z,9.68
2022-11-23T18:35:48.224Z,9.74
2022-11-23T18:38:14.798Z,9.73
2022-11-23T18:40:41.603Z,9.70
2022-11-23T18:43:08.104Z,9.67
2022-11-23T18:45:34.501Z,9.73
2022-11-23T18:48:01.004Z,9.66
2022-11-23T18:50:27.683Z,9.70
2022-11-23T18:52:54.221Z,9.72
2022-11-23T18:55:20.767Z,9.73
2022-11-23T18:57:47.226Z,9.75
2022-11-23T19:00:15.889Z,9.79
2022-11-23T19:02:42.577Z,9.81
2022-11-23T19:05:09.306Z,9.90
2022-11-23T19:07:35.820Z,9.90
2022-11-23T19:10:02.341Z,9.96
2022-11-23T19:12:30.402Z,9.92
2022-11-23T19:14:57.042Z,9.92
2022-11-23T19:17:23.542Z,9.92
2022-11-23T19:19:49.985Z,9.90
2022-11-23T19:22:16.494Z,9.91
2022-11-23T19:24:42.957Z,9.92
2022-11-23T19:27:09.456Z,9.86
2022-11-23T19:29:36.258Z,9.86
2022-11-23T19:32:03.080Z,9.78
2022-11-23T19:34:29.556Z,9.71
2022-11-23T19:36:55.964Z,9.65
2022-11-23T19:39:22.456Z,9.57
2022-11-23T19:41:49.091Z,9.48
2022-11-23T19:44:15.646Z,9.44
2022-11-23T19:46:42.204Z,9.44
2022-11-23T19:49:08.856Z,9.48
2022-11-23T19:51:35.559Z,9.54
2022-11-23T19:54:02.190Z,9.51
2022-11-23T19:56:29.526Z,9.37
2022-11-23T19:58:58.188Z,8.73
2022-11-23T20:01:27.362Z,8.51
2022-11-23T20:03:55.530Z,8.48
2022-11-23T20:06:26.402Z,8.50
2022-11-23T20:08:57.960Z,8.51
2022-11-23T20:11:25.845Z,8.50
2022-11-23T20:13:53.218Z,8.61
2022-11-23T20:16:21.093Z,8.66
2022-11-23T20:18:53.418Z,8.62
2022-11-23T20:21:20.485Z,8.62
2022-11-23T20:23:47.765Z,8.57
2022-11-23T20:26:19.306Z,8.55
2022-11-23T20:28:51.298Z,8.55
2022-11-23T20:31:21.310Z,8.54
2022-11-23T20:33:51.468Z,8.60
2022-11-23T20:36:19.248Z,8.61
2022-11-23T20:38:46.425Z,8.65
2022-11-23T20:41:20.269Z,8.65
2022-11-23T20:43:48.786Z,8.58
2022-11-23T20:46:31.650Z,8.63
2022-11-23T20:49:02.598Z,8.72
2022-11-23T20:51:30.209Z,8.73
2022-11-23T20:53:57.282Z,8.78
2022-11-23T20:56:27.120Z,8.80
2022-11-23T20:58:56.405Z,8.75
2022-11-23T21:01:24.080Z,8.72
2022-11-23T21:03:53.182Z,8.72
2022-11-23T21:06:21.090Z,8.78
2022-11-23T21:08:49.167Z,8.78
2022-11-23T21:11:40.310Z,8.85
2022-11-23T21:14:31.726Z,9.03
2022-11-23T21:17:00.086Z,8.93
2022-11-23T21:19:31.836Z,9.06
2022-11-23T21:22:01.997Z,9.11
2022-11-23T21:24:28.914Z,9.05
2022-11-23T21:26:55.377Z,9.10
2022-11-23T21:29:21.881Z,9.07
2022-11-23T21:31:49.171Z,9.04
2022-11-23T21:34:19.445Z,9.03
2022-11-23T21:36:46.448Z,9.05
2022-11-23T21:39:13.743Z,8.99
2022-11-23T21:41:40.901Z,8.84
2022-11-23T21:44:09.043Z,8.71
2022-11-23T21:46:37.822Z,8.54
2022-11-23T21:49:06.561Z,8.39
2022-11-23T21:51:33.935Z,8.48
2022-11-23T21:54:03.204Z,8.63
2022-11-23T21:56:30.198Z,8.64
2022-11-23T21:58:58.949Z,8.69
2022-11-23T22:01:28.273Z,8.80
2022-11-23T22:03:57.970Z,8.77
2022-11-23T22:06:24.656Z,8.74
2022-11-23T22:08:53.932Z,8.61
2022-11-23T22:11:22.951Z,8.49
2022-11-23T22:13:54.047Z,8.47
2022-11-23T22:16:22.652Z,8.48
2022-11-23T22:18:55.167Z,8.63
2022-11-23T22:21:24.862Z,8.38
2022-11-23T22:23:51.923Z,8.20
2022-11-23T22:26:19.373Z,8.23
2022-11-23T22:28:48.621Z,8.14
2022-11-23T22:31:17.958Z,8.39
2022-11-23T22:33:44.920Z,8.37
2022-11-23T22:36:20.636Z,8.29
2022-11-23T22:38:47.646Z,8.26
2022-11-23T22:41:16.691Z,8.15
2022-11-23T22:43:44.078Z,8.21
2022-11-23T22:46:12.598Z,8.21
2022-11-23T22:48:41.024Z,8.27
2022-11-23T22:51:09.914Z,8.35
2022-11-23T22:53:44.607Z,8.32
2022-11-23T22:56:19.761Z,8.32
2022-11-23T22:58:47.844Z,8.14
2022-11-23T23:01:20.159Z,8.13
2022-11-23T23:03:46.920Z,8.00
2022-11-23T23:06:21.531Z,7.98
2022-11-23T23:08:53.018Z,8.18
2022-11-23T23:11:21.214Z,8.16
2022-11-23T23:13:47.755Z,7.83
2022-11-23T23:16:14.684Z,7.83
2022-11-23T23:18:42.625Z,7.94
2022-11-23T23:21:12.060Z,7.96
2022-11-23T23:23:40.719Z,7.95
2022-11-23T23:26:07.936Z,7.92
2022-11-23T23:28:35.250Z,8.05
2022-11-23T23:31:04.022Z,8.10
2022-11-23T23:33:33.179Z,8.21
2022-11-23T23:36:11.007Z,8.29
2022-11-23T23:38:37.972Z,8.36
2022-11-23T23:41:05.899Z,8.23
2022-11-23T23:43:32.733Z,8.17
2022-11-23T23:46:01.975Z,8.16
2022-11-23T23:48:30.177Z,8.15
2022-11-23T23:50:56.804Z,8.27
2022-11-23T23:53:23.541Z,8.26
2022-11-23T23:55:57.963Z,8.30
2022-11-23T23:58:25.207Z,8.36
